sensor_id;sensor_type;location;lat;lon;timestamp;pressure;altitude;pressure_sealevel;temperature;humidity
70240;BME280;57629;52.256;10.414;2022-08-21T00:00:54;100963.94;;;24.09;53.38
70240;BME280;57629;52.256;10.414;2022-08-21T00:01:54;100970.09;;;24.10;53.55
70240;BME280;57629;52.256;10.414;2022-08-21T00:02:58;100961.25;;;24.09;53.33
70240;BME280;57629;52.256;10.414;2022-08-21T00:04:04;100966.63;;;24.09;53.31
70240;BME280;57629;52.256;10.414;2022-08-21T00:05:05;100959.66;;;24.08;53.88
70240;BME280;57629;52.256;10.414;2022-08-21T00:06:06;100965.03;;;24.08;53.64
70240;BME280;57629;52.256;10.414;2022-08-21T00:07:07;100962.34;;;24.08;53.34
70240;BME280;57629;52.256;10.414;2022-08-21T00:08:08;100958.03;;;24.07;53.67
70240;BME280;57629;52.256;10.414;2022-08-21T00:09:09;100963.13;;;24.08;53.66
70240;BME280;57629;52.256;10.414;2022-08-21T00:10:10;100968.50;;;24.08;53.84
70240;BME280;57629;52.256;10.414;2022-08-21T00:11:12;100958.84;;;24.07;53.33
70240;BME280;57629;52.256;10.414;2022-08-21T00:12:13;100963.41;;;24.07;53.63
70240;BME280;57629;52.256;10.414;2022-08-21T00:13:14;100959.91;;;24.06;53.66
70240;BME280;57629;52.256;10.414;2022-08-21T00:14:16;100962.88;;;24.05;53.56
70240;BME280;57629;52.256;10.414;2022-08-21T00:15:23;100963.69;;;24.05;53.81
70240;BME280;57629;52.256;10.414;2022-08-21T00:16:24;100961.00;;;24.05;53.67
70240;BME280;57629;52.256;10.414;2022-08-21T00:17:24;100964.47;;;24.06;53.61
70240;BME280;57629;52.256;10.414;2022-08-21T00:18:25;100954.00;;;24.04;53.56
70240;BME280;57629;52.256;10.414;2022-08-21T00:19:26;100959.34;;;24.04;53.81
70240;BME280;57629;52.256;10.414;2022-08-21T00:20:27;100950.50;;;24.04;53.66
70240;BME280;57629;52.256;10.414;2022-08-21T00:21:28;100952.16;;;24.05;53.88
70240;BME280;57629;52.256;10.414;2022-08-21T00:22:29;100955.88;;;24.04;53.39
70240;BME280;57629;52.256;10.414;2022-08-21T00:23:30;100950.50;;;24.04;53.51
70240;BME280;57629;52.256;10.414;2022-08-21T00:24:30;100954.28;;;24.03;53.50
70240;BME280;57629;52.256;10.414;2022-08-21T00:25:31;100951.59;;;24.03;53.51
70240;BME280;57629;52.256;10.414;2022-08-21T00:26:32;100946.22;;;24.03;53.71
70240;BME280;57629;52.256;10.414;2022-08-21T00:27:32;100963.38;;;24.02;53.72
70240;BME280;57629;52.256;10.414;2022-08-21T00:28:33;100952.66;;;24.02;53.44
70240;BME280;57629;52.256;10.414;2022-08-21T00:29:34;100954.53;;;24.01;53.69
70240;BME280;57629;52.256;10.414;2022-08-21T00:30:37;100949.97;;;24.02;53.52
70240;BME280;57629;52.256;10.414;2022-08-21T00:31:38;100954.53;;;24.01;53.61
70240;BME280;57629;52.256;10.414;2022-08-21T00:32:40;100959.09;;;24.01;53.61
70240;BME280;57629;52.256;10.414;2022-08-21T00:33:41;100949.16;;;24.01;53.79
70240;BME280;57629;52.256;10.414;2022-08-21T00:34:41;100949.97;;;24.02;53.68
70240;BME280;57629;52.256;10.414;2022-08-21T00:35:43;100949.16;;;24.01;53.50
70240;BME280;57629;52.256;10.414;2022-08-21T00:36:44;100950.25;;;24.00;53.54
70240;BME280;57629;52.256;10.414;2022-08-21T00:37:44;100947.56;;;24.00;53.17
70240;BME280;57629;52.256;10.414;2022-08-21T00:38:45;100949.41;;;24.00;53.26
70240;BME280;57629;52.256;10.414;2022-08-21T00:39:46;100947.56;;;24.00;53.60
70240;BME280;57629;52.256;10.414;2022-08-21T00:40:49;100953.19;;;23.99;53.48
70240;BME280;57629;52.256;10.414;2022-08-21T00:41:51;100951.03;;;24.01;53.34
70240;BME280;57629;52.256;10.414;2022-08-21T00:42:52;100949.41;;;24.00;53.45
70240;BME280;57629;52.256;10.414;2022-08-21T00:43:53;100943.25;;;23.99;53.39
70240;BME280;57629;52.256;10.414;2022-08-21T00:44:53;100945.94;;;23.99;53.50
70240;BME280;57629;52.256;10.414;2022-08-21T00:45:56;100948.63;;;23.99;53.50
70240;BME280;57629;52.256;10.414;2022-08-21T00:46:57;100944.03;;;24.00;53.48
70240;BME280;57629;52.256;10.414;2022-08-21T00:47:58;100947.81;;;23.99;53.14
70240;BME280;57629;52.256;10.414;2022-08-21T00:48:59;100946.22;;;23.98;53.30
70240;BME280;57629;52.256;10.414;2022-08-21T00:50:00;100951.28;;;23.99;53.41
70240;BME280;57629;52.256;10.414;2022-08-21T00:51:05;100939.75;;;23.99;53.18
70240;BME280;57629;52.256;10.414;2022-08-21T00:52:09;100943.53;;;23.98;53.01
70240;BME280;57629;52.256;10.414;2022-08-21T00:53:11;100937.34;;;23.97;53.14
70240;BME280;57629;52.256;10.414;2022-08-21T00:54:13;100938.16;;;23.98;53.11
70240;BME280;57629;52.256;10.414;2022-08-21T00:55:15;100950.75;;;23.97;53.13
70240;BME280;57629;52.256;10.414;2022-08-21T00:56:15;100942.69;;;23.97;52.94
70240;BME280;57629;52.256;10.414;2022-08-21T00:57:20;100940.84;;;23.98;53.12
70240;BME280;57629;52.256;10.414;2022-08-21T00:58:21;100938.16;;;23.98;53.38
70240;BME280;57629;52.256;10.414;2022-08-21T00:59:23;100939.22;;;23.97;53.24
70240;BME280;57629;52.256;10.414;2022-08-21T01:00:28;100933.84;;;23.97;53.34
70240;BME280;57629;52.256;10.414;2022-08-21T01:01:30;100940.31;;;23.96;53.42
70240;BME280;57629;52.256;10.414;2022-08-21T01:02:31;100938.41;;;23.96;53.26
70240;BME280;57629;52.256;10.414;2022-08-21T01:03:32;100940.84;;;23.98;53.14
70240;BME280;57629;52.256;10.414;2022-08-21T01:04:33;100944.59;;;23.97;53.28
70240;BME280;57629;52.256;10.414;2022-08-21T01:05:35;100942.69;;;23.97;53.34
70240;BME280;57629;52.256;10.414;2022-08-21T01:06:35;100939.22;;;23.97;53.14
70240;BME280;57629;52.256;10.414;2022-08-21T01:07:36;100940.84;;;23.98;52.96
70240;BME280;57629;52.256;10.414;2022-08-21T01:08:37;100937.34;;;23.97;53.29
70240;BME280;57629;52.256;10.414;2022-08-21T01:09:39;100938.16;;;23.98;53.04
70240;BME280;57629;52.256;10.414;2022-08-21T01:10:40;100940.00;;;23.97;52.99
70240;BME280;57629;52.256;10.414;2022-08-21T01:11:41;100940.84;;;23.98;53.36
70240;BME280;57629;52.256;10.414;2022-08-21T01:12:42;100938.16;;;23.98;53.20
70240;BME280;57629;52.256;10.414;2022-08-21T01:13:44;100936.53;;;23.97;52.98
70240;BME280;57629;52.256;10.414;2022-08-21T01:14:45;100935.47;;;23.98;53.22
70240;BME280;57629;52.256;10.414;2022-08-21T01:15:47;100947.25;;;23.97;52.91
70240;BME280;57629;52.256;10.414;2022-08-21T01:16:52;100937.34;;;23.97;52.91
70240;BME280;57629;52.256;10.414;2022-08-21T01:17:54;100937.34;;;23.97;53.22
70240;BME280;57629;52.256;10.414;2022-08-21T01:18:55;100943.53;;;23.98;52.90
70240;BME280;57629;52.256;10.414;2022-08-21T01:19:57;100942.69;;;23.97;53.13
70240;BME280;57629;52.256;10.414;2022-08-21T01:21:06;100940.84;;;23.98;53.14
70240;BME280;57629;52.256;10.414;2022-08-21T01:22:07;100940.84;;;23.98;53.06
70240;BME280;57629;52.256;10.414;2022-08-21T01:23:07;100943.53;;;23.98;52.79
70240;BME280;57629;52.256;10.414;2022-08-21T01:24:08;100944.34;;;23.98;53.13
70240;BME280;57629;52.256;10.414;2022-08-21T01:25:11;100943.53;;;23.98;52.91
70240;BME280;57629;52.256;10.414;2022-08-21T01:26:12;100947.00;;;23.98;52.99
70240;BME280;57629;52.256;10.414;2022-08-21T01:27:14;100945.38;;;23.97;53.18
70240;BME280;57629;52.256;10.414;2022-08-21T01:28:14;100948.91;;;23.98;53.19
70240;BME280;57629;52.256;10.414;2022-08-21T01:29:22;100940.00;;;23.97;52.68
70240;BME280;57629;52.256;10.414;2022-08-21T01:30:27;100934.66;;;23.97;52.72
70240;BME280;57629;52.256;10.414;2022-08-21T01:31:29;100937.34;;;23.97;52.82
70240;BME280;57629;52.256;10.414;2022-08-21T01:32:29;100940.00;;;23.97;52.85
70240;BME280;57629;52.256;10.414;2022-08-21T01:33:30;100935.47;;;23.98;52.78
70240;BME280;57629;52.256;10.414;2022-08-21T01:34:32;100944.59;;;23.97;52.89
70240;BME280;57629;52.256;10.414;2022-08-21T01:35:34;100935.72;;;23.96;52.90
70240;BME280;57629;52.256;10.414;2022-08-21T01:36:36;100937.34;;;23.97;52.89
70240;BME280;57629;52.256;10.414;2022-08-21T01:37:36;100942.69;;;23.97;52.98
70240;BME280;57629;52.256;10.414;2022-08-21T01:38:37;100934.66;;;23.97;52.88
70240;BME280;57629;52.256;10.414;2022-08-21T01:39:38;100936.53;;;23.97;52.86
70240;BME280;57629;52.256;10.414;2022-08-21T01:40:39;100934.66;;;23.97;53.03
70240;BME280;57629;52.256;10.414;2022-08-21T01:41:39;100934.66;;;23.97;52.58
70240;BME280;57629;52.256;10.414;2022-08-21T01:42:40;100940.00;;;23.97;52.96
70240;BME280;57629;52.256;10.414;2022-08-21T01:43:42;100941.09;;;23.96;52.64
70240;BME280;57629;52.256;10.414;2022-08-21T01:44:43;100938.41;;;23.96;53.36
70240;BME280;57629;52.256;10.414;2022-08-21T01:45:44;100937.34;;;23.97;52.88
70240;BME280;57629;52.256;10.414;2022-08-21T01:46:45;100936.53;;;23.97;52.82
70240;BME280;57629;52.256;10.414;2022-08-21T01:47:46;100941.91;;;23.97;53.06
70240;BME280;57629;52.256;10.414;2022-08-21T01:48:47;100941.91;;;23.97;52.69
70240;BME280;57629;52.256;10.414;2022-08-21T01:49:47;100941.91;;;23.97;52.75
70240;BME280;57629;52.256;10.414;2022-08-21T01:50:48;100931.16;;;23.97;52.64
70240;BME280;57629;52.256;10.414;2022-08-21T01:51:50;100937.34;;;23.97;52.96
70240;BME280;57629;52.256;10.414;2022-08-21T01:52:51;100933.84;;;23.97;52.88
70240;BME280;57629;52.256;10.414;2022-08-21T01:53:53;100942.69;;;23.97;52.48
70240;BME280;57629;52.256;10.414;2022-08-21T01:54:53;100938.41;;;23.96;52.73
70240;BME280;57629;52.256;10.414;2022-08-21T01:55:54;100938.41;;;23.96;52.85
70240;BME280;57629;52.256;10.414;2022-08-21T01:56:55;100937.63;;;23.96;52.70
70240;BME280;57629;52.256;10.414;2022-08-21T01:57:57;100933.06;;;23.96;52.70
70240;BME280;57629;52.256;10.414;2022-08-21T01:58:58;100934.94;;;23.96;52.95
70240;BME280;57629;52.256;10.414;2022-08-21T01:59:59;100938.66;;;23.95;52.69
70240;BME280;57629;52.256;10.414;2022-08-21T02:01:00;100940.31;;;23.96;52.75
70240;BME280;57629;52.256;10.414;2022-08-21T02:02:01;100940.31;;;23.96;52.87
70240;BME280;57629;52.256;10.414;2022-08-21T02:03:02;100938.66;;;23.95;52.60
70240;BME280;57629;52.256;10.414;2022-08-21T02:04:03;100936.81;;;23.95;52.84
70240;BME280;57629;52.256;10.414;2022-08-21T02:05:04;100936.81;;;23.95;52.71
70240;BME280;57629;52.256;10.414;2022-08-21T02:06:07;100942.19;;;23.95;52.99
70240;BME280;57629;52.256;10.414;2022-08-21T02:07:09;100941.34;;;23.95;52.62
70240;BME280;57629;52.256;10.414;2022-08-21T02:08:09;100939.50;;;23.95;52.76
70240;BME280;57629;52.256;10.414;2022-08-21T02:09:12;100942.19;;;23.95;52.65
70240;BME280;57629;52.256;10.414;2022-08-21T02:10:16;100937.88;;;23.94;52.96
70240;BME280;57629;52.256;10.414;2022-08-21T02:11:18;100943.22;;;23.94;53.07
70240;BME280;57629;52.256;10.414;2022-08-21T02:12:18;100937.06;;;23.94;52.94
70240;BME280;57629;52.256;10.414;2022-08-21T02:13:19;100934.38;;;23.94;52.62
70240;BME280;57629;52.256;10.414;2022-08-21T02:14:20;100934.38;;;23.94;53.17
70240;BME280;57629;52.256;10.414;2022-08-21T02:15:20;100938.94;;;23.93;52.59
70240;BME280;57629;52.256;10.414;2022-08-21T02:16:21;100935.47;;;23.93;52.67
70240;BME280;57629;52.256;10.414;2022-08-21T02:17:22;100931.69;;;23.94;52.58
70240;BME280;57629;52.256;10.414;2022-08-21T02:18:22;100938.16;;;23.93;52.61
70240;BME280;57629;52.256;10.414;2022-08-21T02:19:23;100934.63;;;23.92;52.89
70240;BME280;57629;52.256;10.414;2022-08-21T02:20:27;100933.59;;;23.93;52.74
70240;BME280;57629;52.256;10.414;2022-08-21T02:21:28;100933.84;;;23.92;52.36
70240;BME280;57629;52.256;10.414;2022-08-21T02:22:30;100933.59;;;23.93;52.52
70240;BME280;57629;52.256;10.414;2022-08-21T02:23:31;100930.34;;;23.91;52.71
70240;BME280;57629;52.256;10.414;2022-08-21T02:24:31;100929.28;;;23.92;52.49
70240;BME280;57629;52.256;10.414;2022-08-21T02:25:33;100926.88;;;23.91;52.58
70240;BME280;57629;52.256;10.414;2022-08-21T02:26:34;100928.47;;;23.92;52.71
70240;BME280;57629;52.256;10.414;2022-08-21T02:27:37;100925.00;;;23.91;52.48
70240;BME280;57629;52.256;10.414;2022-08-21T02:28:39;100928.47;;;23.92;52.81
70240;BME280;57629;52.256;10.414;2022-08-21T02:29:39;100927.66;;;23.91;52.62
70240;BME280;57629;52.256;10.414;2022-08-21T02:30:43;100927.66;;;23.91;52.43
70240;BME280;57629;52.256;10.414;2022-08-21T02:31:44;100931.16;;;23.92;52.86
70240;BME280;57629;52.256;10.414;2022-08-21T02:32:45;100929.56;;;23.91;52.66
70240;BME280;57629;52.256;10.414;2022-08-21T02:33:46;100927.66;;;23.91;52.45
70240;BME280;57629;52.256;10.414;2022-08-21T02:34:47;100922.56;;;23.90;52.73
70240;BME280;57629;52.256;10.414;2022-08-21T02:35:48;100926.06;;;23.90;52.73
70240;BME280;57629;52.256;10.414;2022-08-21T02:36:48;100923.38;;;23.90;52.61
70240;BME280;57629;52.256;10.414;2022-08-21T02:37:52;100931.44;;;23.90;52.45
70240;BME280;57629;52.256;10.414;2022-08-21T02:38:53;100925.25;;;23.90;52.78
70240;BME280;57629;52.256;10.414;2022-08-21T02:39:54;100923.38;;;23.90;52.40
70240;BME280;57629;52.256;10.414;2022-08-21T02:40:55;100927.91;;;23.90;52.63
70240;BME280;57629;52.256;10.414;2022-08-21T02:41:56;100925.25;;;23.90;52.34
70240;BME280;57629;52.256;10.414;2022-08-21T02:42:57;100921.75;;;23.89;52.39
70240;BME280;57629;52.256;10.414;2022-08-21T02:43:58;100919.88;;;23.90;52.59
70240;BME280;57629;52.256;10.414;2022-08-21T02:44:58;100927.13;;;23.89;52.70
70240;BME280;57629;52.256;10.414;2022-08-21T02:45:59;100923.63;;;23.89;52.64
70240;BME280;57629;52.256;10.414;2022-08-21T02:47:00;100925.53;;;23.88;52.36
70240;BME280;57629;52.256;10.414;2022-08-21T02:48:03;100925.53;;;23.88;52.42
70240;BME280;57629;52.256;10.414;2022-08-21T02:49:04;100929.00;;;23.89;52.53
70240;BME280;57629;52.256;10.414;2022-08-21T02:50:05;100922.84;;;23.88;52.63
70240;BME280;57629;52.256;10.414;2022-08-21T02:51:08;100929.00;;;23.89;52.49
70240;BME280;57629;52.256;10.414;2022-08-21T02:52:09;100927.41;;;23.88;52.49
70240;BME280;57629;52.256;10.414;2022-08-21T02:53:13;100918.28;;;23.89;52.84
70240;BME280;57629;52.256;10.414;2022-08-21T02:54:13;100926.31;;;23.89;52.61
70240;BME280;57629;52.256;10.414;2022-08-21T02:55:15;100927.13;;;23.89;52.78
70240;BME280;57629;52.256;10.414;2022-08-21T02:56:18;100929.81;;;23.89;52.66
70240;BME280;57629;52.256;10.414;2022-08-21T02:57:19;100922.84;;;23.88;52.52
70240;BME280;57629;52.256;10.414;2022-08-21T02:58:23;100924.44;;;23.89;52.47
70240;BME280;57629;52.256;10.414;2022-08-21T02:59:24;100920.97;;;23.89;52.31
70240;BME280;57629;52.256;10.414;2022-08-21T03:00:27;100924.44;;;23.89;52.34
70240;BME280;57629;52.256;10.414;2022-08-21T03:01:28;100925.25;;;23.90;52.09
70240;BME280;57629;52.256;10.414;2022-08-21T03:02:29;100921.50;;;23.91;52.75
70240;BME280;57629;52.256;10.414;2022-08-21T03:03:29;100921.75;;;23.89;52.64
70240;BME280;57629;52.256;10.414;2022-08-21T03:04:30;100922.56;;;23.90;52.33
70240;BME280;57629;52.256;10.414;2022-08-21T03:05:32;100924.44;;;23.89;52.63
70240;BME280;57629;52.256;10.414;2022-08-21T03:06:33;100919.06;;;23.89;52.09
70240;BME280;57629;52.256;10.414;2022-08-21T03:07:34;100920.72;;;23.90;52.51
70240;BME280;57629;52.256;10.414;2022-08-21T03:08:37;100928.75;;;23.90;52.18
70240;BME280;57629;52.256;10.414;2022-08-21T03:09:38;100926.06;;;23.90;52.48
70240;BME280;57629;52.256;10.414;2022-08-21T03:10:40;100918.81;;;23.91;52.29
70240;BME280;57629;52.256;10.414;2022-08-21T03:11:41;100920.72;;;23.90;52.26
70240;BME280;57629;52.256;10.414;2022-08-21T03:12:42;100919.06;;;23.89;52.47
70240;BME280;57629;52.256;10.414;2022-08-21T03:13:43;100918.03;;;23.90;52.52
70240;BME280;57629;52.256;10.414;2022-08-21T03:14:43;100922.56;;;23.90;52.64
70240;BME280;57629;52.256;10.414;2022-08-21T03:15:44;100916.94;;;23.91;52.22
70240;BME280;57629;52.256;10.414;2022-08-21T03:16:45;100922.56;;;23.90;52.59
70240;BME280;57629;52.256;10.414;2022-08-21T03:17:46;100920.72;;;23.90;52.26
70240;BME280;57629;52.256;10.414;2022-08-21T03:18:47;100916.41;;;23.89;52.25
70240;BME280;57629;52.256;10.414;2022-08-21T03:19:48;100915.34;;;23.90;52.60
70240;BME280;57629;52.256;10.414;2022-08-21T03:20:49;100918.03;;;23.90;52.11
70240;BME280;57629;52.256;10.414;2022-08-21T03:21:49;100913.72;;;23.89;52.20
70240;BME280;57629;52.256;10.414;2022-08-21T03:22:51;100916.41;;;23.89;52.38
70240;BME280;57629;52.256;10.414;2022-08-21T03:23:53;100916.41;;;23.89;52.30
70240;BME280;57629;52.256;10.414;2022-08-21T03:24:53;100917.19;;;23.90;52.28
70240;BME280;57629;52.256;10.414;2022-08-21T03:25:54;100922.56;;;23.90;52.66
70240;BME280;57629;52.256;10.414;2022-08-21T03:26:55;100920.72;;;23.90;52.32
70240;BME280;57629;52.256;10.414;2022-08-21T03:27:55;100922.56;;;23.90;52.14
70240;BME280;57629;52.256;10.414;2022-08-21T03:28:56;100920.97;;;23.89;52.63
70240;BME280;57629;52.256;10.414;2022-08-21T03:29:57;100921.75;;;23.89;52.61
70240;BME280;57629;52.256;10.414;2022-08-21T03:30:58;100919.88;;;23.90;52.11
70240;BME280;57629;52.256;10.414;2022-08-21T03:31:58;100920.97;;;23.89;52.29
70240;BME280;57629;52.256;10.414;2022-08-21T03:32:59;100928.75;;;23.90;52.31
70240;BME280;57629;52.256;10.414;2022-08-21T03:34:00;100923.63;;;23.89;52.52
70240;BME280;57629;52.256;10.414;2022-08-21T03:35:02;100922.84;;;23.88;52.32
70240;BME280;57629;52.256;10.414;2022-08-21T03:36:05;100921.75;;;23.89;52.11
70240;BME280;57629;52.256;10.414;2022-08-21T03:37:07;100919.88;;;23.90;52.21
70240;BME280;57629;52.256;10.414;2022-08-21T03:38:08;100922.56;;;23.90;52.12
70240;BME280;57629;52.256;10.414;2022-08-21T03:39:10;100919.06;;;23.89;52.13
70240;BME280;57629;52.256;10.414;2022-08-21T03:40:13;100926.31;;;23.89;52.07
70240;BME280;57629;52.256;10.414;2022-08-21T03:41:14;100924.44;;;23.89;52.17
70240;BME280;57629;52.256;10.414;2022-08-21T03:42:14;100915.59;;;23.89;52.27
70240;BME280;57629;52.256;10.414;2022-08-21T03:43:15;100923.63;;;23.89;52.03
70240;BME280;57629;52.256;10.414;2022-08-21T03:44:16;100925.53;;;23.88;52.66
70240;BME280;57629;52.256;10.414;2022-08-21T03:45:17;100918.28;;;23.89;52.39
70240;BME280;57629;52.256;10.414;2022-08-21T03:46:18;100924.72;;;23.88;52.38
70240;BME280;57629;52.256;10.414;2022-08-21T03:47:19;100920.16;;;23.88;52.35
70240;BME280;57629;52.256;10.414;2022-08-21T03:48:20;100924.72;;;23.88;52.58
70240;BME280;57629;52.256;10.414;2022-08-21T03:49:20;100922.84;;;23.88;52.43
70240;BME280;57629;52.256;10.414;2022-08-21T03:50:22;100928.19;;;23.88;52.24
70240;BME280;57629;52.256;10.414;2022-08-21T03:51:22;100924.72;;;23.88;52.11
70240;BME280;57629;52.256;10.414;2022-08-21T03:52:23;100920.41;;;23.86;52.32
70240;BME280;57629;52.256;10.414;2022-08-21T03:53:24;100921.22;;;23.87;51.96
70240;BME280;57629;52.256;10.414;2022-08-21T03:54:26;100920.41;;;23.86;52.47
70240;BME280;57629;52.256;10.414;2022-08-21T03:55:27;100928.44;;;23.86;52.36
70240;BME280;57629;52.256;10.414;2022-08-21T03:56:28;100928.44;;;23.86;52.34
70240;BME280;57629;52.256;10.414;2022-08-21T03:57:29;100922.28;;;23.86;52.22
70240;BME280;57629;52.256;10.414;2022-08-21T03:58:29;100923.09;;;23.86;52.33
70240;BME280;57629;52.256;10.414;2022-08-21T03:59:30;100918.81;;;23.85;52.37
70240;BME280;57629;52.256;10.414;2022-08-21T04:00:31;100926.06;;;23.85;52.01
70240;BME280;57629;52.256;10.414;2022-08-21T04:01:32;100923.38;;;23.85;52.49
70240;BME280;57629;52.256;10.414;2022-08-21T04:02:33;100926.06;;;23.85;51.95
70240;BME280;57629;52.256;10.414;2022-08-21T04:03:35;100927.91;;;23.84;51.88
70240;BME280;57629;52.256;10.414;2022-08-21T04:04:36;100928.75;;;23.85;52.07
70240;BME280;57629;52.256;10.414;2022-08-21T04:05:37;100926.06;;;23.85;52.07
70240;BME280;57629;52.256;10.414;2022-08-21T04:06:38;100927.09;;;23.84;52.00
70240;BME280;57629;52.256;10.414;2022-08-21T04:07:39;100925.22;;;23.84;51.98
70240;BME280;57629;52.256;10.414;2022-08-21T04:08:40;100926.31;;;23.83;52.03
70240;BME280;57629;52.256;10.414;2022-08-21T04:09:42;100925.22;;;23.84;52.21
70240;BME280;57629;52.256;10.414;2022-08-21T04:10:43;100926.31;;;23.83;51.99
70240;BME280;57629;52.256;10.414;2022-08-21T04:11:45;100921.75;;;23.84;52.16
70240;BME280;57629;52.256;10.414;2022-08-21T04:12:45;100929.78;;;23.84;51.95
70240;BME280;57629;52.256;10.414;2022-08-21T04:13:47;100922.81;;;23.83;52.27
70240;BME280;57629;52.256;10.414;2022-08-21T04:14:48;100924.66;;;23.82;51.80
70240;BME280;57629;52.256;10.414;2022-08-21T04:15:49;100929.00;;;23.83;51.71
70240;BME280;57629;52.256;10.414;2022-08-21T04:16:49;100924.66;;;23.82;52.11
70240;BME280;57629;52.256;10.414;2022-08-21T04:17:50;100927.34;;;23.82;51.95
70240;BME280;57629;52.256;10.414;2022-08-21T04:18:51;100926.56;;;23.82;52.24
70240;BME280;57629;52.256;10.414;2022-08-21T04:19:51;100934.34;;;23.83;52.01
70240;BME280;57629;52.256;10.414;2022-08-21T04:20:53;100933.56;;;23.83;52.02
70240;BME280;57629;52.256;10.414;2022-08-21T04:21:55;100927.34;;;23.82;52.09
70240;BME280;57629;52.256;10.414;2022-08-21T04:22:56;100927.34;;;23.82;52.03
70240;BME280;57629;52.256;10.414;2022-08-21T04:23:57;100925.75;;;23.81;52.29
70240;BME280;57629;52.256;10.414;2022-08-21T04:24:59;100934.59;;;23.82;51.97
70240;BME280;57629;52.256;10.414;2022-08-21T04:25:59;100938.09;;;23.82;51.95
70240;BME280;57629;52.256;10.414;2022-08-21T04:27:00;100936.47;;;23.81;52.24
70240;BME280;57629;52.256;10.414;2022-08-21T04:28:00;100938.38;;;23.81;52.11
70240;BME280;57629;52.256;10.414;2022-08-21T04:29:02;100937.56;;;23.80;52.04
70240;BME280;57629;52.256;10.414;2022-08-21T04:30:03;100931.13;;;23.81;51.95
70240;BME280;57629;52.256;10.414;2022-08-21T04:31:04;100937.56;;;23.80;51.79
70240;BME280;57629;52.256;10.414;2022-08-21T04:32:06;100942.66;;;23.82;51.93
70240;BME280;57629;52.256;10.414;2022-08-21T04:33:06;100935.69;;;23.81;51.81
70240;BME280;57629;52.256;10.414;2022-08-21T04:34:07;100936.72;;;23.80;52.27
70240;BME280;57629;52.256;10.414;2022-08-21T04:35:09;100937.56;;;23.80;52.16
70240;BME280;57629;52.256;10.414;2022-08-21T04:36:11;100934.88;;;23.80;51.77
70240;BME280;57629;52.256;10.414;2022-08-21T04:37:11;100940.25;;;23.80;51.82
70240;BME280;57629;52.256;10.414;2022-08-21T04:38:12;100940.25;;;23.80;51.76
70240;BME280;57629;52.256;10.414;2022-08-21T04:39:13;100935.94;;;23.79;52.10
70240;BME280;57629;52.256;10.414;2022-08-21T04:40:17;100929.78;;;23.79;51.88
70240;BME280;57629;52.256;10.414;2022-08-21T04:41:18;100942.94;;;23.80;51.88
70240;BME280;57629;52.256;10.414;2022-08-21T04:42:18;100937.81;;;23.79;51.96
70240;BME280;57629;52.256;10.414;2022-08-21T04:43:20;100939.41;;;23.80;51.73
70240;BME280;57629;52.256;10.414;2022-08-21T04:44:20;100934.88;;;23.80;51.79
70240;BME280;57629;52.256;10.414;2022-08-21T04:45:23;100942.09;;;23.80;51.59
70240;BME280;57629;52.256;10.414;2022-08-21T04:46:24;100945.59;;;23.80;51.80
70240;BME280;57629;52.256;10.414;2022-08-21T04:47:25;100942.94;;;23.80;51.80
70240;BME280;57629;52.256;10.414;2022-08-21T04:48:26;100955.25;;;23.81;51.70
70240;BME280;57629;52.256;10.414;2022-08-21T04:49:26;100946.41;;;23.81;51.72
70240;BME280;57629;52.256;10.414;2022-08-21T04:50:30;100945.31;;;23.82;51.56
70240;BME280;57629;52.256;10.414;2022-08-21T04:51:34;100945.31;;;23.82;51.71
70240;BME280;57629;52.256;10.414;2022-08-21T04:52:38;100941.84;;;23.81;51.79
70240;BME280;57629;52.256;10.414;2022-08-21T04:53:41;100949.09;;;23.81;51.67
70240;BME280;57629;52.256;10.414;2022-08-21T04:54:44;100954.44;;;23.81;51.76
70240;BME280;57629;52.256;10.414;2022-08-21T04:55:47;100945.31;;;23.82;51.64
70240;BME280;57629;52.256;10.414;2022-08-21T04:56:51;100950.97;;;23.80;52.09
70240;BME280;57629;52.256;10.414;2022-08-21T04:57:54;100954.44;;;23.81;51.81
70240;BME280;57629;52.256;10.414;2022-08-21T04:58:58;100950.69;;;23.82;51.52
70240;BME280;57629;52.256;10.414;2022-08-21T05:00:00;100948.00;;;23.82;51.86
70240;BME280;57629;52.256;10.414;2022-08-21T05:01:02;100950.69;;;23.82;51.53
70240;BME280;57629;52.256;10.414;2022-08-21T05:02:04;100949.09;;;23.81;51.44
70240;BME280;57629;52.256;10.414;2022-08-21T05:03:06;100949.88;;;23.81;51.72
70240;BME280;57629;52.256;10.414;2022-08-21T05:04:09;100941.84;;;23.81;51.92
70240;BME280;57629;52.256;10.414;2022-08-21T05:05:11;100949.88;;;23.81;51.56
70240;BME280;57629;52.256;10.414;2022-08-21T05:06:12;100950.97;;;23.80;51.66
70240;BME280;57629;52.256;10.414;2022-08-21T05:07:18;100948.00;;;23.82;51.65
70240;BME280;57629;52.256;10.414;2022-08-21T05:08:23;100949.88;;;23.81;51.51
70240;BME280;57629;52.256;10.414;2022-08-21T05:09:24;100948.00;;;23.82;51.79
70240;BME280;57629;52.256;10.414;2022-08-21T05:10:26;100943.72;;;23.81;51.43
70240;BME280;57629;52.256;10.414;2022-08-21T05:11:29;100946.13;;;23.82;51.50
70240;BME280;57629;52.256;10.414;2022-08-21T05:12:31;100943.72;;;23.81;51.64
70240;BME280;57629;52.256;10.414;2022-08-21T05:13:31;100939.16;;;23.81;51.75
70240;BME280;57629;52.256;10.414;2022-08-21T05:14:32;100949.88;;;23.81;51.32
70240;BME280;57629;52.256;10.414;2022-08-21T05:15:33;100947.22;;;23.81;51.33
70240;BME280;57629;52.256;10.414;2022-08-21T05:16:33;100953.38;;;23.82;51.33
70240;BME280;57629;52.256;10.414;2022-08-21T05:17:34;100948.28;;;23.80;51.39